Time;durP1;ratioP1;P1;durP2;ratioP2;P2;SDS_P1;SDS_P2;PMS_P1;PMS_P2;Temp;Humidity;BMP_temperature;BMP_pressure;BME280_temperature;BME280_humidity;BME280_pressure;Samples;Min_cycle;Max_cycle;Signal;HPM_P1;HPM_P2
2023/08/18 00:02:01;;;;;;;2.40;2.00;;;21.00;99.90;;;;;;5113543;28;20446;-79
2023/08/18 00:04:28;;;;;;;2.57;2.33;;;21.00;99.90;;;;;;5112937;28;20481;-79
2023/08/18 00:06:55;;;;;;;1.73;1.63;;;21.00;99.90;;;;;;5113347;28;20196;-79
2023/08/18 00:09:24;;;;;;;2.90;2.10;;;21.00;99.90;;;;;;5113255;28;20516;-79
2023/08/18 00:11:51;;;;;;;2.30;1.97;;;21.00;99.90;;;;;;5113900;28;20446;-79
2023/08/18 00:14:17;;;;;;;3.13;1.60;;;20.90;99.90;;;;;;5113458;28;20489;-79
2023/08/18 00:16:44;;;;;;;9.67;1.83;;;20.90;99.90;;;;;;5117085;28;20446;-79
2023/08/18 00:19:11;;;;;;;3.00;2.23;;;20.80;99.90;;;;;;5117103;27;20430;-79
2023/08/18 00:21:38;;;;;;;1.80;1.70;;;20.80;99.90;;;;;;5116991;28;20541;-79
2023/08/18 00:24:05;;;;;;;2.03;1.50;;;20.80;99.90;;;;;;5116900;28;20809;-79
2023/08/18 00:26:33;;;;;;;3.23;2.20;;;20.80;99.90;;;;;;5116921;28;20446;-79
2023/08/18 00:29:00;;;;;;;3.33;2.23;;;20.70;99.90;;;;;;5116726;28;20478;-79
2023/08/18 00:31:27;;;;;;;2.03;1.80;;;20.70;99.90;;;;;;5116519;28;20927;-79
2023/08/18 00:33:53;;;;;;;1.93;1.50;;;20.70;99.90;;;;;;5116874;28;20446;-79
2023/08/18 00:36:20;;;;;;;2.37;2.27;;;20.70;99.90;;;;;;5116613;28;20463;-79
2023/08/18 00:38:47;;;;;;;7.20;2.10;;;20.60;99.90;;;;;;5116711;28;20430;-80
2023/08/18 00:41:14;;;;;;;2.70;1.90;;;20.60;99.90;;;;;;5116315;28;20963;-80
2023/08/18 00:43:42;;;;;;;4.40;1.77;;;20.60;99.90;;;;;;5116814;28;20453;-80
2023/08/18 00:46:10;;;;;;;6.87;1.83;;;20.60;99.90;;;;;;5116479;28;20459;-80
2023/08/18 00:48:38;;;;;;;2.27;1.93;;;20.60;99.90;;;;;;5116128;28;20478;-79
2023/08/18 00:51:05;;;;;;;2.77;1.93;;;20.60;99.90;;;;;;5116382;28;20446;-80
2023/08/18 00:53:32;;;;;;;2.20;1.80;;;20.60;99.90;;;;;;5116443;28;20446;-79
2023/08/18 00:55:59;;;;;;;2.30;1.70;;;20.60;99.90;;;;;;5116296;28;20462;-80
2023/08/18 00:58:27;;;;;;;4.50;2.13;;;20.60;99.90;;;;;;5116001;28;20946;-79
2023/08/18 01:00:55;;;;;;;2.60;2.33;;;20.50;99.90;;;;;;5115931;28;20972;-80
2023/08/18 01:03:22;;;;;;;2.77;1.97;;;20.50;99.90;;;;;;5115969;28;20481;-80
2023/08/18 01:05:49;;;;;;;1.90;1.80;;;20.40;99.90;;;;;;5116064;28;20454;-80
2023/08/18 01:08:16;;;;;;;1.83;1.60;;;20.40;99.90;;;;;;5115808;28;20493;-80
2023/08/18 01:10:51;;;;;;;2.43;1.80;;;20.30;99.90;;;;;;5115763;28;20443;-80
2023/08/18 01:13:28;;;;;;;3.27;2.53;;;20.30;99.90;;;;;;5115966;28;20426;-79
2023/08/18 01:16:00;;;;;;;2.67;2.00;;;20.20;99.90;;;;;;5115892;28;20466;-80
2023/08/18 01:18:28;;;;;;;4.50;1.60;;;20.20;99.90;;;;;;5116187;28;20419;-80
2023/08/18 01:20:55;;;;;;;2.50;2.30;;;20.20;99.90;;;;;;5115834;28;20446;-79
2023/08/18 01:23:23;;;;;;;4.37;2.13;;;20.10;99.90;;;;;;5115780;28;20800;-80
2023/08/18 01:25:50;;;;;;;2.33;1.80;;;20.10;99.90;;;;;;5114968;28;20995;-79
2023/08/18 01:28:17;;;;;;;5.13;1.70;;;20.10;99.90;;;;;;5115690;28;20475;-79
2023/08/18 01:30:47;;;;;;;2.70;2.30;;;20.10;99.90;;;;;;5115488;28;20454;-80
2023/08/18 01:33:20;;;;;;;2.20;1.90;;;20.10;99.90;;;;;;5115598;28;20474;-79
2023/08/18 01:35:49;;;;;;;2.50;1.70;;;20.10;99.90;;;;;;5115476;28;20466;-79
2023/08/18 01:38:19;;;;;;;1.70;1.60;;;20.00;99.90;;;;;;5115527;28;20434;-80
2023/08/18 01:40:50;;;;;;;2.60;2.30;;;20.00;99.90;;;;;;5115541;28;20782;-80
2023/08/18 01:43:17;;;;;;;2.47;1.93;;;19.90;99.90;;;;;;5115444;28;20443;-80
2023/08/18 01:45:44;;;;;;;2.83;2.40;;;19.90;99.90;;;;;;5115325;28;20463;-79
2023/08/18 01:48:10;;;;;;;3.60;2.60;;;20.00;99.90;;;;;;5115286;28;20482;-80
2023/08/18 01:50:37;;;;;;;2.73;2.50;;;19.80;99.90;;;;;;5114930;28;20443;-80
2023/08/18 01:53:04;;;;;;;3.03;2.00;;;19.80;99.90;;;;;;5115214;28;20442;-80
2023/08/18 01:55:31;;;;;;;3.13;2.60;;;19.80;99.90;;;;;;5115108;28;20455;-79
2023/08/18 01:57:59;;;;;;;2.53;2.30;;;19.80;99.90;;;;;;5115353;27;20447;-80
2023/08/18 02:00:25;;;;;;;2.20;1.97;;;19.80;99.90;;;;;;5114720;28;20451;-80
2023/08/18 02:02:52;;;;;;;5.00;2.33;;;19.80;99.90;;;;;;5114855;27;20474;-80
2023/08/18 02:05:19;;;;;;;3.60;2.37;;;19.80;99.90;;;;;;5114750;28;20458;-80
2023/08/18 02:07:46;;;;;;;2.90;1.80;;;19.80;99.90;;;;;;5114863;28;20447;-80
2023/08/18 02:10:13;;;;;;;10.50;2.23;;;19.80;99.90;;;;;;5114616;28;20443;-79
2023/08/18 02:12:39;;;;;;;2.73;1.90;;;19.70;99.90;;;;;;5114834;27;20492;-79
2023/08/18 02:15:09;;;;;;;5.17;2.00;;;19.80;99.90;;;;;;5114418;28;21010;-79
2023/08/18 02:17:36;;;;;;;3.03;2.20;;;19.80;99.90;;;;;;5114720;28;20447;-80
2023/08/18 02:20:04;;;;;;;4.00;1.50;;;19.80;99.90;;;;;;5114354;27;20927;-80
2023/08/18 02:22:31;;;;;;;2.00;1.63;;;19.90;99.90;;;;;;5114650;28;20486;-81
2023/08/18 02:24:57;;;;;;;1.83;1.37;;;19.90;99.90;;;;;;5114234;28;20469;-79
2023/08/18 02:27:24;;;;;;;1.73;1.23;;;19.90;99.90;;;;;;5114576;28;20435;-79
2023/08/18 02:29:52;;;;;;;1.90;1.17;;;19.90;99.90;;;;;;5114216;28;20493;-79
2023/08/18 02:32:21;;;;;;;3.40;2.13;;;19.90;99.90;;;;;;5114491;28;20446;-79
2023/08/18 02:34:47;;;;;;;2.20;2.10;;;19.90;99.90;;;;;;5114375;28;20494;-80
2023/08/18 02:37:15;;;;;;;4.87;1.80;;;19.90;99.90;;;;;;5113639;28;20442;-80
2023/08/18 02:39:42;;;;;;;5.83;1.50;;;19.90;99.90;;;;;;5114335;28;20446;-80
2023/08/18 02:42:09;;;;;;;1.50;1.40;;;19.90;99.90;;;;;;5114305;28;20454;-79
2023/08/18 02:44:36;;;;;;;1.90;1.80;;;19.90;99.90;;;;;;5114156;28;20459;-79
2023/08/18 02:47:02;;;;;;;3.43;1.27;;;19.80;99.90;;;;;;5114231;28;20439;-79
2023/08/18 02:49:31;;;;;;;1.03;0.97;;;19.90;99.90;;;;;;5114351;28;20470;-80
2023/08/18 02:51:57;;;;;;;1.70;1.50;;;19.80;99.90;;;;;;5113959;28;20450;-80
2023/08/18 02:54:24;;;;;;;3.27;1.70;;;19.80;99.90;;;;;;5114349;28;20463;-80
2023/08/18 02:56:51;;;;;;;1.33;1.23;;;19.70;99.90;;;;;;5114072;28;20446;-79
2023/08/18 02:59:17;;;;;;;4.20;1.63;;;19.70;99.90;;;;;;5113984;28;20442;-79
2023/08/18 03:01:44;;;;;;;2.10;1.63;;;19.70;99.90;;;;;;5114224;28;20492;-79
2023/08/18 03:04:14;;;;;;;2.00;1.73;;;19.70;99.90;;;;;;5113483;28;20482;-79
2023/08/18 03:06:42;;;;;;;2.37;2.20;;;19.70;99.90;;;;;;5113616;28;20545;-79
2023/08/18 03:09:08;;;;;;;2.77;1.57;;;19.70;99.90;;;;;;5113842;28;20506;-79
2023/08/18 03:11:35;;;;;;;2.10;1.40;;;19.70;99.90;;;;;;5113571;28;20455;-79
2023/08/18 03:14:02;;;;;;;2.90;1.07;;;19.70;99.90;;;;;;5113773;28;20439;-79
2023/08/18 03:16:28;;;;;;;2.13;1.80;;;19.60;99.90;;;;;;5113736;28;20443;-79
2023/08/18 03:18:55;;;;;;;3.83;1.90;;;19.70;99.90;;;;;;5113715;28;20805;-79
2023/08/18 03:21:22;;;;;;;2.37;1.50;;;19.50;99.90;;;;;;5113330;28;20450;-79
2023/08/18 03:23:50;;;;;;;5.47;1.77;;;19.40;99.90;;;;;;5113500;28;20431;-79
2023/08/18 03:26:17;;;;;;;2.10;1.87;;;19.40;99.90;;;;;;5113325;28;20467;-79
2023/08/18 03:28:43;;;;;;;1.87;1.77;;;19.40;99.90;;;;;;5113322;28;20479;-79
2023/08/18 03:31:10;;;;;;;2.00;1.90;;;19.40;99.90;;;;;;5113708;28;20434;-80
2023/08/18 03:33:37;;;;;;;4.00;1.60;;;19.30;99.90;;;;;;5113512;28;21057;-80
2023/08/18 03:36:04;;;;;;;3.10;1.70;;;19.30;99.90;;;;;;5113556;28;20462;-79
2023/08/18 03:38:31;;;;;;;1.63;1.53;;;19.30;99.90;;;;;;5113327;28;20825;-79
2023/08/18 03:41:01;;;;;;;1.80;1.60;;;19.20;99.90;;;;;;5113551;28;20450;-79
2023/08/18 03:43:28;;;;;;;2.97;2.03;;;19.20;99.90;;;;;;5113567;28;20442;-79
2023/08/18 03:45:58;;;;;;;6.57;2.47;;;19.20;99.90;;;;;;5113488;28;20459;-79
2023/08/18 03:48:25;;;;;;;1.67;1.40;;;19.10;99.90;;;;;;5113960;28;20430;-79
2023/08/18 03:50:51;;;;;;;1.73;1.40;;;19.10;99.90;;;;;;5117256;27;20939;-79
2023/08/18 03:53:21;;;;;;;1.83;1.30;;;19.00;99.90;;;;;;5117569;28;20446;-79
2023/08/18 03:55:51;;;;;;;3.13;2.13;;;19.00;99.90;;;;;;5117436;28;20898;-80
2023/08/18 03:58:19;;;;;;;3.13;1.73;;;19.00;99.90;;;;;;5117164;28;20442;-80
2023/08/18 04:00:45;;;;;;;2.90;2.10;;;19.00;99.90;;;;;;5117393;28;20435;-79
2023/08/18 04:03:12;;;;;;;5.90;1.63;;;19.00;99.90;;;;;;5117362;28;20471;-80
2023/08/18 04:05:45;;;;;;;1.63;1.50;;;19.00;99.90;;;;;;5117330;28;20470;-79
2023/08/18 04:08:12;;;;;;;5.60;2.00;;;18.90;99.90;;;;;;5117053;28;20908;-79
2023/08/18 04:10:39;;;;;;;2.07;1.87;;;18.90;99.90;;;;;;5117138;27;20482;-79
2023/08/18 04:13:06;;;;;;;2.50;1.80;;;18.80;99.90;;;;;;5117158;28;20449;-79
2023/08/18 04:15:34;;;;;;;2.10;1.90;;;18.80;99.90;;;;;;5117028;28;20474;-79
2023/08/18 04:18:00;;;;;;;1.97;1.70;;;18.70;99.90;;;;;;5117128;28;20442;-80
2023/08/18 04:20:29;;;;;;;3.47;2.03;;;18.70;99.90;;;;;;5116951;28;20815;-79
2023/08/18 04:22:55;;;;;;;2.53;2.00;;;18.70;99.90;;;;;;5116998;28;20542;-79
2023/08/18 04:25:22;;;;;;;2.20;1.70;;;18.60;99.90;;;;;;5116628;28;20455;-79
2023/08/18 04:27:49;;;;;;;2.77;1.93;;;18.60;99.90;;;;;;5116877;27;20443;-79
2023/08/18 04:30:16;;;;;;;2.30;2.07;;;18.50;99.90;;;;;;5116694;28;20475;-79
2023/08/18 04:32:44;;;;;;;2.63;2.10;;;18.50;99.90;;;;;;5116503;28;20936;-79
2023/08/18 04:35:10;;;;;;;2.90;1.80;;;18.50;99.90;;;;;;5116656;28;20458;-79
2023/08/18 04:37:37;;;;;;;2.53;2.33;;;18.40;99.90;;;;;;5116702;28;20439;-79
2023/08/18 04:40:06;;;;;;;1.80;1.40;;;18.40;99.90;;;;;;5116669;28;20788;-79
2023/08/18 04:42:33;;;;;;;3.03;2.20;;;18.40;99.90;;;;;;5116594;28;20506;-79
2023/08/18 04:44:59;;;;;;;2.43;2.23;;;18.40;99.90;;;;;;5116429;28;20475;-79
2023/08/18 04:47:26;;;;;;;2.60;2.40;;;18.40;99.90;;;;;;5116489;28;20445;-79
2023/08/18 04:49:54;;;;;;;3.40;2.20;;;18.40;99.90;;;;;;5116452;28;20497;-79
2023/08/18 04:52:22;;;;;;;1.97;1.87;;;18.40;99.90;;;;;;5116079;28;20439;-79
2023/08/18 04:54:49;;;;;;;2.33;2.00;;;18.40;99.90;;;;;;5116305;28;20469;-79
2023/08/18 04:57:15;;;;;;;2.70;2.50;;;18.50;99.90;;;;;;5116372;28;20485;-79
2023/08/18 04:59:42;;;;;;;3.43;3.13;;;18.50;99.90;;;;;;5115902;28;20465;-79
2023/08/18 05:02:09;;;;;;;5.07;3.97;;;18.50;99.90;;;;;;5115893;28;20450;-79
2023/08/18 05:04:35;;;;;;;3.57;2.67;;;18.50;99.90;;;;;;5115684;28;20475;-79
2023/08/18 05:07:04;;;;;;;2.43;2.23;;;18.60;99.90;;;;;;5116130;28;20446;-79
2023/08/18 05:09:30;;;;;;;2.33;2.13;;;18.60;99.90;;;;;;5116890;28;20832;-79
2023/08/18 05:11:57;;;;;;;3.17;2.87;;;18.60;99.90;;;;;;5116022;27;20454;-79
2023/08/18 05:14:24;;;;;;;3.57;2.23;;;18.60;99.90;;;;;;5115962;28;20459;-80
2023/08/18 05:16:51;;;;;;;2.40;2.20;;;18.60;99.90;;;;;;5115639;28;20967;-80
2023/08/18 05:19:17;;;;;;;2.40;2.10;;;18.70;99.90;;;;;;5115889;28;20484;-80
2023/08/18 05:21:44;;;;;;;8.47;2.87;;;18.70;99.90;;;;;;5115847;28;20435;-80
2023/08/18 05:24:12;;;;;;;1.80;1.70;;;18.80;99.90;;;;;;5115434;28;20962;-79
2023/08/18 05:26:39;;;;;;;3.97;1.73;;;18.80;99.90;;;;;;5115806;27;20454;-79
2023/08/18 05:29:06;;;;;;;4.70;2.40;;;18.90;99.90;;;;;;5115645;28;20485;-79
2023/08/18 05:31:34;;;;;;;2.10;1.90;;;18.90;99.90;;;;;;5115683;28;20435;-79
2023/08/18 05:34:01;;;;;;;3.70;2.40;;;18.90;99.90;;;;;;5115589;28;20447;-79
2023/08/18 05:36:28;;;;;;;2.53;1.93;;;19.00;99.90;;;;;;5115762;28;20443;-79
2023/08/18 05:38:54;;;;;;;3.37;2.20;;;19.00;99.90;;;;;;5115254;28;20447;-79
2023/08/18 05:41:22;;;;;;;2.13;1.97;;;19.10;99.90;;;;;;5115711;28;20446;-79
2023/08/18 05:43:49;;;;;;;3.83;2.33;;;19.10;99.90;;;;;;5115425;28;20439;-80
2023/08/18 05:46:16;;;;;;;6.60;1.80;;;19.20;99.90;;;;;;5115310;28;20459;-80
2023/08/18 05:48:43;;;;;;;2.17;1.70;;;19.20;99.90;;;;;;5115372;27;20446;-80
2023/08/18 05:51:09;;;;;;;1.70;1.60;;;19.30;99.90;;;;;;5115368;28;20852;-80
2023/08/18 05:53:36;;;;;;;2.20;2.00;;;19.40;99.90;;;;;;5115275;28;20447;-80
2023/08/18 05:56:03;;;;;;;2.77;2.20;;;19.40;99.90;;;;;;5115176;28;20546;-80
2023/08/18 05:58:31;;;;;;;2.97;2.60;;;19.50;99.90;;;;;;5115106;28;20445;-80
2023/08/18 06:00:58;;;;;;;2.80;2.60;;;19.60;99.90;;;;;;5114783;28;20822;-79
2023/08/18 06:03:25;;;;;;;2.87;2.67;;;19.70;99.90;;;;;;5114828;28;20485;-79
2023/08/18 06:05:51;;;;;;;4.30;2.37;;;19.70;99.90;;;;;;5114881;28;20463;-79
2023/08/18 06:08:18;;;;;;;2.90;1.80;;;19.80;99.90;;;;;;5114937;28;20443;-79
2023/08/18 06:10:46;;;;;;;1.97;1.87;;;19.90;99.90;;;;;;5114426;28;20858;-79
2023/08/18 06:13:13;;;;;;;2.90;2.03;;;20.00;99.90;;;;;;5113796;28;20443;-79
2023/08/18 06:15:42;;;;;;;5.13;2.03;;;20.10;99.90;;;;;;5120897;28;20467;-84
2023/08/18 06:18:09;;;;;;;2.10;1.90;;;20.20;99.90;;;;;;5114891;28;20530;-85
2023/08/18 06:20:36;;;;;;;5.10;2.40;;;20.40;99.90;;;;;;5114579;28;20446;-84
2023/08/18 06:23:03;;;;;;;2.40;1.97;;;20.50;99.90;;;;;;5114674;28;20438;-85
2023/08/18 06:25:29;;;;;;;2.70;2.17;;;20.60;99.90;;;;;;5115196;27;20470;-85
2023/08/18 06:27:56;;;;;;;3.27;2.50;;;20.80;99.90;;;;;;5114703;28;20453;-85
2023/08/18 06:30:23;;;;;;;2.63;2.20;;;20.90;99.90;;;;;;5114815;28;20493;-85
2023/08/18 06:32:51;;;;;;;2.13;1.93;;;21.10;99.90;;;;;;5114588;28;20449;-85
2023/08/18 06:35:18;;;;;;;1.83;1.67;;;21.20;99.90;;;;;;5114422;28;20820;-85
2023/08/18 06:37:45;;;;;;;2.23;2.03;;;21.30;99.90;;;;;;5114824;28;20446;-85
2023/08/18 06:40:12;;;;;;;4.80;1.93;;;21.50;99.90;;;;;;5114394;27;20430;-85
2023/08/18 06:42:39;;;;;;;2.40;2.20;;;21.50;99.90;;;;;;5114398;28;20454;-84
2023/08/18 06:45:06;;;;;;;2.07;1.90;;;21.50;99.90;;;;;;5114316;28;20465;-84
2023/08/18 06:47:32;;;;;;;2.30;1.97;;;21.60;99.90;;;;;;5114267;28;20457;-85
2023/08/18 06:50:01;;;;;;;1.70;1.50;;;21.70;99.90;;;;;;5114449;27;20474;-84
2023/08/18 06:52:28;;;;;;;2.40;2.20;;;21.70;99.90;;;;;;5114319;28;20810;-85
2023/08/18 06:54:54;;;;;;;3.10;2.40;;;21.80;99.90;;;;;;5113916;28;20451;-84
2023/08/18 06:57:22;;;;;;;2.50;1.87;;;22.00;99.90;;;;;;5114169;28;20436;-85
2023/08/18 06:59:49;;;;;;;3.10;2.40;;;22.10;99.90;;;;;;5114208;28;20449;-85
2023/08/18 07:02:15;;;;;;;2.13;1.63;;;22.20;99.90;;;;;;5114059;28;20442;-84
2023/08/18 07:04:42;;;;;;;4.67;1.87;;;22.40;99.90;;;;;;5114000;28;20458;-84
2023/08/18 07:07:10;;;;;;;2.07;1.97;;;22.40;99.90;;;;;;5113741;28;20450;-85
2023/08/18 07:09:37;;;;;;;2.10;1.90;;;22.40;99.90;;;;;;5113911;28;20478;-84
2023/08/18 07:12:05;;;;;;;2.03;1.60;;;22.60;99.90;;;;;;5113986;28;20461;-84
2023/08/18 07:14:31;;;;;;;2.27;1.83;;;22.70;99.90;;;;;;5113508;28;20469;-85
2023/08/18 07:16:59;;;;;;;2.47;2.27;;;22.80;99.90;;;;;;5114156;28;20200;-85
2023/08/18 07:19:26;;;;;;;4.90;2.10;;;22.90;99.90;;;;;;5113870;28;20495;-84
2023/08/18 07:21:52;;;;;;;1.60;1.50;;;23.00;99.90;;;;;;5113515;28;20201;-84
2023/08/18 07:24:20;;;;;;;1.60;1.50;;;23.10;99.90;;;;;;5113340;28;20221;-84
2023/08/18 07:26:47;;;;;;;1.50;1.40;;;23.30;99.90;;;;;;5113843;28;20201;-85
2023/08/18 07:29:14;;;;;;;4.83;2.00;;;23.30;99.90;;;;;;5113459;28;20208;-85
2023/08/18 07:31:42;;;;;;;4.60;1.53;;;23.40;99.90;;;;;;5113653;28;20221;-84
2023/08/18 07:34:08;;;;;;;2.70;1.83;;;23.40;99.90;;;;;;5113482;28;20759;-85
2023/08/18 07:36:35;;;;;;;2.40;1.40;;;23.50;99.90;;;;;;5113721;28;20297;-85
2023/08/18 07:39:03;;;;;;;3.10;1.37;;;23.70;99.90;;;;;;5113467;28;20196;-85
2023/08/18 07:41:32;;;;;;;3.45;1.77;;;23.80;99.90;;;;;;5113764;28;20197;-85
2023/08/18 07:43:58;;;;;;;1.83;1.73;;;24.00;99.90;;;;;;5113559;28;20205;-85
2023/08/18 07:46:25;;;;;;;2.17;1.38;;;24.20;99.90;;;;;;5113594;28;20382;-84
2023/08/18 07:48:52;;;;;;;2.03;1.20;;;24.30;99.90;;;;;;5113640;28;20204;-84
2023/08/18 07:51:18;;;;;;;1.33;1.27;;;24.30;99.90;;;;;;5113134;28;20220;-84
2023/08/18 07:53:45;;;;;;;2.10;1.23;;;24.40;99.90;;;;;;5113553;28;20200;-84
2023/08/18 07:56:12;;;;;;;1.42;0.90;;;24.60;99.90;;;;;;5113153;28;20208;-85
2023/08/18 07:58:40;;;;;;;2.28;1.13;;;24.70;99.90;;;;;;5113214;28;20657;-84
2023/08/18 08:01:07;;;;;;;2.83;1.17;;;24.80;99.90;;;;;;5113154;28;20204;-84
2023/08/18 08:03:35;;;;;;;1.67;1.35;;;24.80;99.90;;;;;;5113188;28;20224;-84
2023/08/18 08:06:04;;;;;;;2.03;1.38;;;24.90;99.90;;;;;;5113302;28;20221;-84
2023/08/18 08:08:30;;;;;;;1.40;1.30;;;24.90;99.90;;;;;;5113464;28;20254;-84
2023/08/18 08:10:57;;;;;;;1.42;1.33;;;25.10;99.90;;;;;;5113614;28;20221;-84
2023/08/18 08:13:25;;;;;;;1.33;1.00;;;25.20;99.90;;;;;;5113388;28;20278;-84
2023/08/18 08:15:53;;;;;;;1.42;1.02;;;25.30;99.90;;;;;;5113212;28;20231;-84
2023/08/18 08:18:20;;;;;;;1.17;1.10;;;25.40;99.90;;;;;;5113349;28;20212;-84
2023/08/18 08:20:47;;;;;;;1.73;1.60;;;25.40;99.90;;;;;;5113274;28;20570;-84
2023/08/18 08:23:15;;;;;;;1.55;1.30;;;25.50;99.90;;;;;;5113966;28;20204;-83
2023/08/18 08:25:42;;;;;;;1.10;1.00;;;25.60;99.90;;;;;;5113418;28;20256;-84
2023/08/18 08:28:09;;;;;;;1.33;1.17;;;25.60;99.90;;;;;;5113278;28;20197;-84
2023/08/18 08:30:38;;;;;;;1.05;0.95;;;25.60;99.90;;;;;;5112767;28;20217;-83
2023/08/18 08:33:06;;;;;;;5.68;1.40;;;25.80;99.90;;;;;;5112820;28;20722;-84
2023/08/18 08:35:33;;;;;;;8.10;1.02;;;26.00;99.90;;;;;;5113910;28;20217;-83
2023/08/18 08:38:00;;;;;;;0.98;0.90;;;26.00;99.90;;;;;;5116727;28;20204;-83
2023/08/18 08:40:26;;;;;;;2.72;1.23;;;26.20;99.90;;;;;;5116588;28;20681;-83
2023/08/18 08:42:56;;;;;;;1.92;1.00;;;26.30;99.90;;;;;;5116637;28;20201;-83
2023/08/18 08:45:23;;;;;;;1.17;1.08;;;26.40;99.90;;;;;;5116560;28;20271;-84
2023/08/18 08:47:52;;;;;;;2.10;0.85;;;26.50;99.90;;;;;;5116250;28;20690;-84
2023/08/18 08:50:22;;;;;;;1.10;1.10;;;26.50;99.90;;;;;;5116068;28;20228;-83
2023/08/18 08:52:52;;;;;;;1.38;1.27;;;26.60;99.90;;;;;;5116539;28;20195;-84
2023/08/18 08:55:24;;;;;;;1.17;0.98;;;26.60;99.90;;;;;;5116382;28;20251;-84
2023/08/18 08:57:51;;;;;;;3.35;1.00;;;26.80;99.90;;;;;;5116485;28;20185;-83
2023/08/18 09:00:18;;;;;;;1.77;1.00;;;27.00;99.90;;;;;;5116303;28;20201;-83
2023/08/18 09:02:45;;;;;;;4.20;0.82;;;27.10;99.90;;;;;;5116000;28;20264;-83
2023/08/18 09:05:12;;;;;;;1.42;1.30;;;27.20;99.90;;;;;;5116170;27;20221;-83
2023/08/18 09:07:40;;;;;;;1.88;1.00;;;27.40;99.90;;;;;;5116310;28;20204;-84
2023/08/18 09:10:09;;;;;;;1.08;1.08;;;27.60;99.90;;;;;;5116069;28;20205;-84
2023/08/18 09:12:35;;;;;;;7.35;0.90;;;27.80;99.90;;;;;;5116122;28;20200;-84
2023/08/18 09:15:03;;;;;;;2.15;0.82;;;28.00;99.90;;;;;;5116056;28;20237;-83
2023/08/18 09:17:29;;;;;;;0.98;0.90;;;27.90;99.90;;;;;;5116046;28;20196;-84
2023/08/18 09:19:56;;;;;;;1.73;1.63;;;27.90;99.90;;;;;;5116084;28;20190;-84
2023/08/18 09:22:24;;;;;;;1.52;0.90;;;27.90;99.90;;;;;;5115639;28;20688;-84
2023/08/18 09:24:52;;;;;;;1.15;1.00;;;27.90;99.90;;;;;;5115861;28;20247;-84
2023/08/18 09:27:20;;;;;;;1.15;1.10;;;27.80;99.90;;;;;;5115532;28;20212;-84
2023/08/18 09:29:47;;;;;;;1.52;0.90;;;27.90;99.90;;;;;;5115926;28;20204;-84
2023/08/18 09:32:14;;;;;;;3.90;1.08;;;28.10;99.90;;;;;;5115936;28;20270;-83
2023/08/18 09:34:43;;;;;;;1.73;1.00;;;28.10;99.90;;;;;;5115606;27;20225;-84
2023/08/18 09:37:10;;;;;;;1.30;1.08;;;28.30;99.90;;;;;;5115830;28;20197;-84
2023/08/18 09:39:37;;;;;;;1.05;0.95;;;28.20;99.90;;;;;;5115588;27;20197;-83
2023/08/18 09:42:07;;;;;;;7.10;1.65;;;28.30;99.90;;;;;;5115586;28;20200;-83
2023/08/18 09:44:33;;;;;;;0.82;0.80;;;28.30;99.90;;;;;;5115155;28;20709;-83
2023/08/18 09:47:03;;;;;;;0.73;0.73;;;28.40;99.90;;;;;;5115142;28;20197;-83
2023/08/18 09:49:35;;;;;;;0.88;0.75;;;28.40;99.90;;;;;;5115443;28;20208;-83
2023/08/18 09:52:04;;;;;;;1.05;1.00;;;28.40;99.90;;;;;;5115296;28;20293;-83
2023/08/18 09:54:35;;;;;;;1.08;0.98;;;28.40;99.90;;;;;;5115249;28;20273;-83
2023/08/18 09:57:08;;;;;;;0.73;0.73;;;28.50;99.90;;;;;;5114927;28;20196;-83
2023/08/18 09:59:39;;;;;;;1.50;1.40;;;28.70;99.90;;;;;;5115240;28;20197;-83
2023/08/18 10:02:06;;;;;;;1.05;0.98;;;28.90;99.90;;;;;;5114852;28;20525;-82
2023/08/18 10:04:39;;;;;;;0.85;0.85;;;29.10;99.90;;;;;;5114582;28;20598;-83
2023/08/18 10:07:06;;;;;;;1.15;0.90;;;29.10;99.90;;;;;;5114930;28;20650;-83
2023/08/18 10:09:34;;;;;;;1.20;1.17;;;29.10;99.90;;;;;;5114911;28;20694;-83
2023/08/18 10:12:01;;;;;;;1.15;1.05;;;29.10;99.90;;;;;;5114869;28;20225;-83
2023/08/18 10:14:31;;;;;;;1.10;0.80;;;28.90;99.90;;;;;;5114826;28;20231;-83
2023/08/18 10:17:00;;;;;;;0.98;0.90;;;28.90;99.90;;;;;;5114492;28;20689;-84
2023/08/18 10:19:47;;;;;;;0.93;0.93;;;28.90;99.90;;;;;;5114757;28;20201;-83
2023/08/18 10:22:15;;;;;;;18.70;17.60;;;28.90;99.90;;;;;;5114429;28;20193;-83
2023/08/18 10:24:44;;;;;;;58.38;55.28;;;28.90;99.90;;;;;;5114626;28;20221;-83
2023/08/18 10:27:12;;;;;;;91.53;86.72;;;28.90;99.90;;;;;;5114610;28;20197;-84
2023/08/18 10:29:43;;;;;;;28.73;27.23;;;28.80;99.90;;;;;;5114314;28;20197;-83
2023/08/18 10:32:12;;;;;;;27.73;26.13;;;28.80;99.90;;;;;;5114549;28;20209;-82
2023/08/18 10:34:39;;;;;;;21.48;20.42;;;28.80;99.90;;;;;;5114495;28;20226;-83
2023/08/18 10:37:07;;;;;;;21.67;20.50;;;28.90;99.90;;;;;;5114193;28;20209;-82
2023/08/18 10:39:36;;;;;;;11.60;10.85;;;28.90;99.90;;;;;;5114109;28;20202;-83
2023/08/18 10:42:13;;;;;;;13.85;13.00;;;28.90;99.90;;;;;;5114362;28;20194;-83
2023/08/18 10:44:56;;;;;;;29.65;28.13;;;29.00;99.90;;;;;;5114282;28;20224;-83
2023/08/18 10:47:30;;;;;;;10.48;9.88;;;29.00;99.90;;;;;;5114278;27;20190;-82
2023/08/18 10:49:57;;;;;;;19.52;18.42;;;29.00;99.90;;;;;;5113941;28;20602;-83
2023/08/18 10:52:26;;;;;;;16.05;15.15;;;29.10;99.90;;;;;;5113782;28;20578;-82
2023/08/18 10:54:52;;;;;;;24.63;23.20;;;29.20;99.90;;;;;;5114302;28;20239;-79
2023/08/18 10:57:19;;;;;;;12.15;11.48;;;29.50;99.90;;;;;;5114047;27;20207;-78
2023/08/18 10:59:47;;;;;;;21.73;20.63;;;29.60;99.90;;;;;;5113410;28;20214;-79
2023/08/18 11:02:14;;;;;;;31.83;30.13;;;29.90;99.90;;;;;;5113680;28;20207;-79
2023/08/18 11:04:42;;;;;;;22.10;20.92;;;30.10;99.90;;;;;;5113968;28;20234;-79
2023/08/18 11:07:09;;;;;;;14.05;13.27;;;30.30;99.90;;;;;;5113704;28;20214;-79
2023/08/18 11:09:37;;;;;;;71.88;68.18;;;30.40;99.90;;;;;;5113978;28;20217;-79
2023/08/18 11:12:04;;;;;;;97.95;93.63;;;30.50;99.90;;;;;;5113900;28;20346;-79
2023/08/18 11:14:31;;;;;;;59.53;56.65;;;30.30;99.90;;;;;;5113860;28;20226;-80
2023/08/18 11:16:59;;;;;;;63.33;60.28;;;30.30;99.90;;;;;;5113917;28;20204;-79
2023/08/18 11:19:26;;;;;;;69.80;66.53;;;30.20;99.90;;;;;;5113855;28;20259;-79
2023/08/18 11:21:53;;;;;;;104.70;99.68;;;30.10;99.90;;;;;;5113781;28;20201;-80
2023/08/18 11:24:19;;;;;;;107.05;102.20;;;30.00;99.90;;;;;;5113699;28;20236;-79
2023/08/18 11:26:47;;;;;;;54.10;51.53;;;29.90;99.90;;;;;;5113510;28;20198;-79
2023/08/18 11:29:15;;;;;;;144.63;137.93;;;29.80;99.90;;;;;;5113804;28;20258;-79
2023/08/18 11:31:45;;;;;;;132.80;126.72;;;29.70;99.10;;;;;;5113397;28;20217;-80
2023/08/18 11:34:13;;;;;;;58.65;55.65;;;29.70;98.20;;;;;;5113716;28;20188;-80
2023/08/18 11:36:41;;;;;;;76.68;73.20;;;29.60;96.90;;;;;;5113604;28;20201;-80
2023/08/18 11:39:08;;;;;;;108.43;103.30;;;29.70;99.00;;;;;;5113607;28;20196;-79
2023/08/18 11:41:38;;;;;;;88.22;83.70;;;29.70;98.60;;;;;;5113647;28;20207;-79
2023/08/18 11:44:07;;;;;;;82.40;78.75;;;29.70;98.10;;;;;;5113537;28;20207;-79
2023/08/18 11:46:34;;;;;;;83.85;79.75;;;29.70;98.10;;;;;;5113245;28;20207;-79
2023/08/18 11:49:02;;;;;;;125.90;120.13;;;29.80;98.50;;;;;;5113281;28;20203;-80
2023/08/18 11:51:30;;;;;;;70.28;66.70;;;29.80;98.80;;;;;;5113445;28;20266;-80
2023/08/18 11:53:57;;;;;;;66.13;63.00;;;29.80;98.70;;;;;;5113410;28;20215;-80
2023/08/18 11:56:26;;;;;;;91.22;86.88;;;29.80;98.60;;;;;;5113486;28;20557;-79
2023/08/18 11:58:53;;;;;;;122.85;116.90;;;29.70;98.40;;;;;;5113414;28;20741;-79
2023/08/18 12:01:21;;;;;;;85.13;80.95;;;29.70;97.50;;;;;;5113427;28;20244;-80
2023/08/18 12:03:56;;;;;;;93.68;89.18;;;29.80;97.40;;;;;;5113169;28;20233;-79
2023/08/18 12:06:25;;;;;;;93.32;88.85;;;29.70;97.90;;;;;;5113148;28;20712;-79
2023/08/18 12:08:53;;;;;;;115.40;109.65;;;29.70;98.40;;;;;;5113385;28;20204;-79
2023/08/18 12:11:20;;;;;;;114.22;108.53;;;29.70;98.00;;;;;;5116814;28;20700;-79
2023/08/18 12:13:47;;;;;;;122.80;116.57;;;29.70;95.80;;;;;;5117452;28;20207;-79
2023/08/18 12:16:14;;;;;;;94.05;89.53;;;29.70;96.60;;;;;;5117116;28;20228;-79
2023/08/18 12:18:41;;;;;;;89.72;85.47;;;29.80;96.40;;;;;;5117145;28;20214;-79
2023/08/18 12:21:08;;;;;;;97.65;92.78;;;29.80;97.50;;;;;;5117042;28;20211;-79
2023/08/18 12:23:34;;;;;;;113.57;108.05;;;29.70;97.00;;;;;;5117078;28;20230;-79
2023/08/18 12:26:04;;;;;;;141.25;134.60;;;29.70;97.00;;;;;;5116912;28;20235;-79
2023/08/18 12:28:32;;;;;;;55.33;52.58;;;29.70;96.90;;;;;;5116742;28;20196;-79
2023/08/18 12:31:00;;;;;;;63.00;59.85;;;29.60;96.40;;;;;;5117076;28;20204;-79
2023/08/18 12:33:26;;;;;;;69.65;66.18;;;29.60;96.40;;;;;;5116881;28;20299;-79
2023/08/18 12:35:53;;;;;;;40.25;38.15;;;29.50;97.20;;;;;;5116956;28;20227;-79
2023/08/18 12:38:20;;;;;;;88.65;83.93;;;29.40;96.90;;;;;;5116523;28;20196;-79
2023/08/18 12:40:46;;;;;;;27.88;26.45;;;29.40;96.80;;;;;;5116696;28;20712;-79
2023/08/18 12:43:14;;;;;;;48.30;45.80;;;29.30;96.40;;;;;;5116615;28;20203;-79
2023/08/18 12:45:41;;;;;;;26.10;24.60;;;29.30;94.70;;;;;;5116540;28;20223;-79